createdAt,value
2023-04-08T00:01:26.195Z,87.53
2023-04-08T00:03:54.389Z,87.35
2023-04-08T00:06:22.232Z,87.85
2023-04-08T00:08:50.237Z,87.60
2023-04-08T00:11:19.561Z,87.95
2023-04-08T00:13:47.334Z,87.96
2023-04-08T00:16:15.316Z,87.88
2023-04-08T00:18:43.254Z,87.79
2023-04-08T00:21:10.994Z,87.69
2023-04-08T00:23:38.784Z,87.97
2023-04-08T00:26:06.616Z,88.00
2023-04-08T00:28:35.767Z,88.11
2023-04-08T00:31:03.562Z,87.57
2023-04-08T00:33:31.351Z,87.47
2023-04-08T00:35:59.183Z,87.99
2023-04-08T00:38:27.012Z,88.01
2023-04-08T00:40:54.785Z,87.68
2023-04-08T00:43:22.570Z,88.21
2023-04-08T00:45:51.771Z,88.06
2023-04-08T00:48:19.688Z,88.04
2023-04-08T00:50:47.497Z,88.01
2023-04-08T00:53:17.236Z,88.01
2023-04-08T00:55:45.382Z,88.16
2023-04-08T00:58:14.033Z,88.05
2023-04-08T01:00:44.721Z,87.86
2023-04-08T01:03:18.171Z,87.90
2023-04-08T01:05:52.909Z,88.11
2023-04-08T01:08:20.926Z,88.09
2023-04-08T01:10:51.039Z,88.17
2023-04-08T01:13:19.655Z,88.29
2023-04-08T01:15:47.431Z,88.35
2023-04-08T01:18:17.367Z,88.61
2023-04-08T01:20:46.241Z,88.29
2023-04-08T01:23:17.669Z,88.04
2023-04-08T01:25:48.788Z,88.41
2023-04-08T01:28:17.998Z,88.11
2023-04-08T01:30:47.282Z,88.52
2023-04-08T01:33:16.683Z,88.33
2023-04-08T01:35:44.766Z,88.29
2023-04-08T01:38:15.855Z,88.21
2023-04-08T01:40:43.879Z,88.36
2023-04-08T01:43:15.014Z,88.75
2023-04-08T01:45:43.763Z,88.21
2023-04-08T01:48:12.197Z,88.25
2023-04-08T01:50:41.279Z,88.38
2023-04-08T01:53:10.118Z,88.55
2023-04-08T01:55:38.916Z,88.43
2023-04-08T01:58:08.779Z,88.89
2023-04-08T02:00:38.123Z,88.57
2023-04-08T02:03:07.064Z,88.27
2023-04-08T02:05:35.373Z,88.76
2023-04-08T02:08:03.227Z,88.23
2023-04-08T02:10:31.013Z,88.50
2023-04-08T02:12:58.805Z,88.84
2023-04-08T02:15:27.565Z,88.90
2023-04-08T02:17:57.688Z,88.24
2023-04-08T02:20:32.481Z,88.65
2023-04-08T02:23:05.200Z,88.56
2023-04-08T02:25:36.101Z,88.78
2023-04-08T02:28:05.842Z,88.21
2023-04-08T02:30:34.029Z,88.80
2023-04-08T02:33:04.668Z,88.35
2023-04-08T02:35:32.879Z,88.65
2023-04-08T02:38:00.761Z,88.96
2023-04-08T02:40:30.519Z,88.68
2023-04-08T02:42:58.978Z,88.84
2023-04-08T02:45:29.248Z,88.96
2023-04-08T02:47:57.081Z,88.30
2023-04-08T02:50:26.275Z,88.68
2023-04-08T02:52:54.020Z,88.72
2023-04-08T02:55:21.743Z,88.44
2023-04-08T02:57:49.890Z,88.54
2023-04-08T03:00:18.228Z,88.58
2023-04-08T03:02:46.354Z,88.34
2023-04-08T03:05:16.315Z,88.77
2023-04-08T03:07:45.505Z,88.23
2023-04-08T03:10:13.363Z,88.44
2023-04-08T03:12:41.174Z,88.56
2023-04-08T03:15:09.564Z,88.05
2023-04-08T03:17:37.364Z,88.44
2023-04-08T03:20:06.179Z,88.66
2023-04-08T03:22:34.386Z,88.24
2023-04-08T03:25:03.897Z,88.09
2023-04-08T03:27:31.879Z,88.03
2023-04-08T03:29:59.678Z,88.54
2023-04-08T03:32:27.570Z,88.09
2023-04-08T03:34:55.359Z,88.17
2023-04-08T03:37:23.176Z,88.23
2023-04-08T03:39:50.975Z,87.91
2023-04-08T03:42:20.159Z,88.58
2023-04-08T03:44:47.964Z,88.87
2023-04-08T03:47:15.750Z,88.67
2023-04-08T03:49:43.523Z,88.75
2023-04-08T03:52:11.321Z,88.08
2023-04-08T03:54:39.150Z,88.85
2023-04-08T03:57:06.901Z,88.37
2023-04-08T03:59:36.469Z,88.26
2023-04-08T04:02:04.455Z,88.32
2023-04-08T04:04:32.360Z,88.96
2023-04-08T04:07:00.177Z,88.97
2023-04-08T04:09:28.170Z,89.08
2023-04-08T04:11:55.966Z,89.03
2023-04-08T04:14:23.731Z,88.47
2023-04-08T04:16:52.904Z,88.91
2023-04-08T04:19:20.892Z,88.63
2023-04-08T04:21:48.646Z,88.35
2023-04-08T04:24:16.476Z,88.77
2023-04-08T04:26:44.203Z,89.02
2023-04-08T04:29:11.980Z,88.43
2023-04-08T04:31:39.953Z,88.85
2023-04-08T04:34:09.181Z,88.95
2023-04-08T04:36:36.939Z,88.95
2023-04-08T04:39:04.904Z,88.36
2023-04-08T04:41:32.691Z,88.83
2023-04-08T04:44:00.517Z,88.30
2023-04-08T04:46:28.354Z,88.14
2023-04-08T04:48:56.599Z,88.53
2023-04-08T04:51:26.554Z,88.77
2023-04-08T04:53:54.334Z,88.21
2023-04-08T04:56:22.309Z,89.32
2023-04-08T04:58:50.314Z,88.47
2023-04-08T05:01:18.228Z,89.13
2023-04-08T05:03:46.072Z,89.01
2023-04-08T05:06:13.931Z,89.14
2023-04-08T05:08:43.088Z,88.49
2023-04-08T05:11:11.217Z,88.88
2023-04-08T05:13:38.983Z,88.53
2023-04-08T05:16:07.425Z,88.28
2023-04-08T05:18:35.252Z,88.81
2023-04-08T05:21:03.125Z,88.38
2023-04-08T05:23:30.850Z,89.01
2023-04-08T05:26:00.009Z,88.44
2023-04-08T05:28:27.835Z,88.57
2023-04-08T05:30:56.073Z,88.88
2023-04-08T05:33:23.933Z,89.29
2023-04-08T05:35:51.688Z,88.69
2023-04-08T05:38:19.553Z,88.27
2023-04-08T05:40:47.347Z,88.60
2023-04-08T05:43:16.702Z,87.97
2023-04-08T05:45:44.456Z,88.07
2023-04-08T05:48:12.232Z,87.67
2023-04-08T05:50:40.057Z,88.14
2023-04-08T05:53:07.920Z,87.28
2023-04-08T05:55:35.835Z,87.11
2023-04-08T05:58:03.641Z,86.75
2023-04-08T06:00:32.778Z,86.70
2023-04-08T06:03:00.679Z,86.86
2023-04-08T06:05:28.685Z,86.62
2023-04-08T06:07:56.431Z,86.40
2023-04-08T06:10:24.507Z,86.39
2023-04-08T06:12:52.309Z,85.99
2023-04-08T06:15:21.274Z,85.92
2023-04-08T06:17:50.788Z,86.21
2023-04-08T06:20:18.646Z,85.91
2023-04-08T06:22:46.374Z,85.42
2023-04-08T06:25:14.217Z,84.87
2023-04-08T06:27:42.002Z,84.44
2023-04-08T06:30:10.814Z,84.43
2023-04-08T06:32:38.577Z,83.83
2023-04-08T06:35:09.097Z,83.69
2023-04-08T06:37:38.724Z,83.36
2023-04-08T06:40:07.830Z,82.98
2023-04-08T06:42:36.077Z,81.97
2023-04-08T06:45:03.967Z,81.81
2023-04-08T06:47:31.789Z,81.70
2023-04-08T06:49:59.625Z,81.60
2023-04-08T06:52:28.759Z,81.20
2023-04-08T06:54:56.530Z,81.38
2023-04-08T06:57:24.389Z,81.31
2023-04-08T06:59:53.516Z,80.81
2023-04-08T07:02:22.708Z,80.83
2023-04-08T07:04:50.834Z,80.54
2023-04-08T07:07:18.641Z,80.30
2023-04-08T07:09:47.761Z,80.78
2023-04-08T07:12:15.675Z,80.95
2023-04-08T07:14:43.448Z,81.12
2023-04-08T07:17:11.220Z,81.13
2023-04-08T07:19:39.025Z,81.17
2023-04-08T07:22:06.840Z,80.85
2023-04-08T07:24:34.892Z,80.90
2023-04-08T07:27:04.135Z,81.00
2023-04-08T07:29:32.344Z,80.80
2023-04-08T07:32:00.105Z,80.82
2023-04-08T07:34:27.867Z,80.82
2023-04-08T07:36:55.653Z,80.84
2023-04-08T07:39:23.383Z,80.93
2023-04-08T07:41:51.130Z,80.81
2023-04-08T07:44:20.291Z,80.69
2023-04-08T07:46:51.579Z,81.05
2023-04-08T07:49:19.482Z,80.71
2023-04-08T07:51:47.316Z,80.93
2023-04-08T07:54:17.441Z,80.85
2023-04-08T07:56:45.556Z,80.59
2023-04-08T07:59:13.671Z,80.46
2023-04-08T08:01:42.950Z,80.44
2023-04-08T08:04:10.934Z,80.19
2023-04-08T08:06:38.760Z,79.85
2023-04-08T08:09:06.569Z,79.69
2023-04-08T08:11:34.398Z,79.21
2023-04-08T08:14:02.173Z,79.16
2023-04-08T08:16:30.210Z,78.75
2023-04-08T08:18:59.647Z,78.42
2023-04-08T08:21:27.807Z,78.10
2023-04-08T08:23:56.919Z,77.70
2023-04-08T08:26:24.864Z,77.03
2023-04-08T08:28:52.627Z,76.93
2023-04-08T08:31:20.382Z,77.39
2023-04-08T08:33:48.714Z,76.55
2023-04-08T08:36:18.184Z,76.55
2023-04-08T08:38:46.141Z,76.70
2023-04-08T08:41:13.895Z,76.84
2023-04-08T08:43:41.676Z,75.96
2023-04-08T08:46:11.972Z,75.79
2023-04-08T08:48:40.816Z,75.85
2023-04-08T08:51:10.673Z,75.98
2023-04-08T08:53:40.242Z,75.23
2023-04-08T08:58:41.042Z,75.05
2023-04-08T09:01:34.343Z,75.06
2023-04-08T09:04:09.950Z,75.29
2023-04-08T09:06:37.931Z,75.29
2023-04-08T09:09:10.584Z,75.01
2023-04-08T09:11:40.552Z,75.39
2023-04-08T09:14:19.170Z,75.42
2023-04-08T09:16:47.334Z,74.68
2023-04-08T09:19:15.526Z,75.01
2023-04-08T09:21:43.882Z,74.87
2023-04-08T09:24:30.799Z,74.56
2023-04-08T09:26:58.602Z,74.23
2023-04-08T09:29:30.533Z,74.52
2023-04-08T09:32:02.524Z,74.35
2023-04-08T09:34:32.606Z,74.44
2023-04-08T09:37:00.868Z,74.68
2023-04-08T09:39:30.803Z,75.05
2023-04-08T09:42:01.198Z,74.62
2023-04-08T09:44:30.539Z,74.68
2023-04-08T09:47:03.164Z,74.02
2023-04-08T09:49:35.614Z,73.72
2023-04-08T09:52:08.793Z,73.72
2023-04-08T09:54:45.477Z,73.74
2023-04-08T09:57:16.362Z,73.93
2023-04-08T09:59:51.310Z,73.97
2023-04-08T10:02:26.776Z,73.92
2023-04-08T10:04:56.172Z,74.28
2023-04-08T10:07:24.029Z,74.44
2023-04-08T10:09:53.504Z,74.16
2023-04-08T10:12:21.323Z,74.30
2023-04-08T10:15:22.556Z,74.13
2023-04-08T10:17:50.523Z,73.50
2023-04-08T10:20:45.937Z,72.93
2023-04-08T10:23:14.636Z,72.05
2023-04-08T10:25:45.293Z,71.83
2023-04-08T10:28:34.013Z,71.73
2023-04-08T10:31:03.092Z,71.13
2023-04-08T10:33:37.258Z,70.22
2023-04-08T10:36:11.505Z,70.46
2023-04-08T10:38:39.590Z,70.13
2023-04-08T10:41:08.841Z,69.04
2023-04-08T10:43:37.193Z,68.61
2023-04-08T10:46:05.594Z,68.27
2023-04-08T10:48:33.773Z,68.58
2023-04-08T10:51:08.468Z,68.39
2023-04-08T10:53:37.123Z,68.86
2023-04-08T10:56:06.264Z,68.16
2023-04-08T10:58:36.343Z,67.61
2023-04-08T11:01:05.813Z,67.30
2023-04-08T11:03:34.826Z,67.82
2023-04-08T11:06:03.119Z,66.72
2023-04-08T11:08:31.085Z,67.34
2023-04-08T11:11:01.256Z,67.70
2023-04-08T11:13:29.306Z,66.88
2023-04-08T11:16:00.119Z,67.71
2023-04-08T11:18:28.655Z,67.69
2023-04-08T11:20:58.346Z,67.27
2023-04-08T11:23:27.981Z,66.62
2023-04-08T11:25:56.197Z,66.51
2023-04-08T11:28:24.148Z,66.69
2023-04-08T11:30:52.029Z,65.54
2023-04-08T11:33:21.638Z,65.78
2023-04-08T11:35:53.379Z,66.24
2023-04-08T11:38:23.818Z,65.04
2023-04-08T11:40:54.186Z,64.94
2023-04-08T11:43:22.108Z,64.88
2023-04-08T11:45:49.973Z,64.12
2023-04-08T11:48:18.394Z,64.44
2023-04-08T11:50:47.533Z,63.79
2023-04-08T11:53:19.847Z,62.96
2023-04-08T11:55:48.537Z,61.96
2023-04-08T11:58:16.530Z,61.10
2023-04-08T12:00:45.649Z,60.22
2023-04-08T12:03:13.639Z,58.69
2023-04-08T12:05:42.625Z,57.85
2023-04-08T12:08:11.856Z,56.77
2023-04-08T12:10:39.645Z,56.50
2023-04-08T12:13:07.430Z,56.19
2023-04-08T12:15:35.184Z,56.22
2023-04-08T12:18:03.152Z,55.59
2023-04-08T12:20:31.012Z,56.11
2023-04-08T12:22:58.791Z,56.87
2023-04-08T12:25:31.401Z,55.95
2023-04-08T12:27:59.217Z,55.32
2023-04-08T12:30:26.996Z,54.81
2023-04-08T12:32:55.423Z,55.94
2023-04-08T12:35:23.334Z,54.89
2023-04-08T12:37:51.184Z,55.07
2023-04-08T12:40:19.238Z,55.60
2023-04-08T12:42:48.623Z,55.73
2023-04-08T12:45:16.603Z,54.71
2023-04-08T12:47:44.431Z,54.88
2023-04-08T12:50:12.261Z,54.13
2023-04-08T12:52:40.098Z,54.58
2023-04-08T12:55:08.662Z,54.84
2023-04-08T12:57:36.419Z,55.17
2023-04-08T13:00:06.496Z,55.79
2023-04-08T13:02:34.336Z,55.95
2023-04-08T13:05:02.187Z,55.27
2023-04-08T13:07:30.028Z,56.27
2023-04-08T13:09:57.752Z,56.42
2023-04-08T13:12:25.564Z,56.25
2023-04-08T13:14:53.383Z,55.64
2023-04-08T13:17:22.876Z,57.02
2023-04-08T13:19:51.229Z,58.24
2023-04-08T13:22:19.128Z,58.90
2023-04-08T13:24:46.927Z,59.30
2023-04-08T13:27:14.752Z,59.96
2023-04-08T13:29:42.617Z,60.14
2023-04-08T13:32:10.461Z,60.26
2023-04-08T13:34:39.597Z,60.81
2023-04-08T13:37:07.404Z,61.32
2023-04-08T13:39:35.646Z,60.62
2023-04-08T13:42:03.533Z,58.62
2023-04-08T13:44:33.166Z,57.76
2023-04-08T13:47:00.959Z,57.18
2023-04-08T13:49:28.806Z,57.17
2023-04-08T13:51:57.927Z,57.23
2023-04-08T13:54:25.904Z,56.67
2023-04-08T13:56:53.721Z,57.61
2023-04-08T13:59:21.514Z,57.90
2023-04-08T14:01:53.750Z,58.73
2023-04-08T14:04:21.858Z,59.38
2023-04-08T14:06:51.047Z,59.57
2023-04-08T14:09:20.704Z,60.02
2023-04-08T14:11:48.467Z,60.13
2023-04-08T14:14:16.214Z,59.46
2023-04-08T14:16:44.058Z,59.60
2023-04-08T14:19:11.871Z,59.43
2023-04-08T14:21:39.730Z,59.07
2023-04-08T14:24:07.598Z,58.70
2023-04-08T14:26:36.775Z,58.87
2023-04-08T14:29:05.471Z,59.29
2023-04-08T14:31:33.328Z,58.57
2023-04-08T14:34:01.453Z,58.26
2023-04-08T14:36:30.280Z,58.96
2023-04-08T14:38:58.118Z,58.47
2023-04-08T14:41:27.290Z,59.45
2023-04-08T14:43:56.524Z,60.13
2023-04-08T14:46:26.485Z,60.08
2023-04-08T14:48:55.923Z,60.80
2023-04-08T14:51:23.687Z,61.07
2023-04-08T14:53:51.677Z,60.81
2023-04-08T14:56:19.509Z,61.23
2023-04-08T14:58:47.296Z,60.97
2023-04-08T15:01:16.421Z,61.16
2023-04-08T15:03:44.306Z,60.50
2023-04-08T15:06:16.916Z,60.08
2023-04-08T15:08:45.823Z,60.82
2023-04-08T15:11:13.768Z,61.02
2023-04-08T15:13:41.729Z,61.95
2023-04-08T15:16:09.577Z,63.22
2023-04-08T15:18:38.737Z,63.19
2023-04-08T15:21:06.602Z,63.99
2023-04-08T15:23:34.368Z,64.11
2023-04-08T15:26:03.426Z,65.02
2023-04-08T15:28:31.188Z,64.81
2023-04-08T15:30:59.066Z,65.10
2023-04-08T15:33:27.121Z,64.82
2023-04-08T15:35:57.493Z,64.96
2023-04-08T15:38:25.557Z,64.46
2023-04-08T15:40:53.563Z,64.80
2023-04-08T15:43:21.396Z,64.48
2023-04-08T15:45:49.152Z,64.71
2023-04-08T15:48:16.970Z,65.17
2023-04-08T15:50:44.838Z,64.65
2023-04-08T15:53:13.998Z,64.77
2023-04-08T15:55:42.208Z,64.54
2023-04-08T15:58:10.026Z,64.02
2023-04-08T16:00:37.843Z,63.88
2023-04-08T16:03:08.435Z,64.05
2023-04-08T16:05:39.226Z,64.01
2023-04-08T16:08:07.699Z,63.97
2023-04-08T16:10:37.329Z,64.03
2023-04-08T16:13:05.116Z,64.08
2023-04-08T16:15:34.147Z,64.34
2023-04-08T16:18:03.094Z,64.34
2023-04-08T16:20:30.890Z,64.47
2023-04-08T16:22:58.633Z,64.43
2023-04-08T16:25:28.175Z,64.70
2023-04-08T16:27:57.471Z,64.70
2023-04-08T16:30:25.303Z,65.00
2023-04-08T16:32:53.134Z,65.66
2023-04-08T16:35:22.348Z,65.12
2023-04-08T16:37:50.192Z,65.18
2023-04-08T16:40:18.286Z,65.17
2023-04-08T16:42:46.121Z,65.47
2023-04-08T16:45:15.778Z,65.68
2023-04-08T16:47:44.475Z,65.56
2023-04-08T16:50:12.484Z,65.36
2023-04-08T16:52:40.266Z,65.68
2023-04-08T16:55:09.198Z,66.17
2023-04-08T16:57:36.974Z,66.11
2023-04-08T17:00:05.232Z,66.09
2023-04-08T17:02:34.478Z,66.45
2023-04-08T17:05:02.315Z,66.41
2023-04-08T17:07:31.202Z,66.77
2023-04-08T17:09:59.043Z,66.54
2023-04-08T17:12:26.839Z,66.92
2023-04-08T17:14:54.678Z,67.35
2023-04-08T17:17:22.480Z,67.06
2023-04-08T17:19:52.003Z,67.16
2023-04-08T17:22:19.751Z,67.02
2023-04-08T17:24:48.187Z,67.00
2023-04-08T17:27:16.160Z,67.08
2023-04-08T17:29:43.956Z,67.33
2023-04-08T17:32:12.518Z,67.37
2023-04-08T17:34:41.016Z,67.49
2023-04-08T17:37:10.481Z,67.52
2023-04-08T17:39:40.931Z,67.60
2023-04-08T17:42:08.963Z,67.61
2023-04-08T17:44:36.903Z,67.81
2023-04-08T17:47:04.972Z,67.98
2023-04-08T17:49:32.792Z,68.58
2023-04-08T17:52:00.640Z,68.69
2023-04-08T17:54:31.468Z,68.10
2023-04-08T17:56:59.263Z,68.50
2023-04-08T17:59:27.071Z,68.73
2023-04-08T18:01:54.968Z,69.08
2023-04-08T18:04:22.954Z,69.26
2023-04-08T18:06:50.795Z,69.54
2023-04-08T18:09:18.556Z,69.50
2023-04-08T18:11:47.639Z,69.96
2023-04-08T18:14:15.418Z,69.98
2023-04-08T18:16:43.282Z,69.29
2023-04-08T18:19:11.069Z,70.05
2023-04-08T18:21:38.908Z,69.88
2023-04-08T18:24:08.722Z,70.01
2023-04-08T18:26:37.106Z,70.23
2023-04-08T18:29:06.761Z,70.23
2023-04-08T18:31:34.648Z,70.03
2023-04-08T18:34:03.186Z,70.33
2023-04-08T18:36:31.742Z,69.63
2023-04-08T18:38:59.488Z,70.15
2023-04-08T18:41:28.018Z,69.36
2023-04-08T18:43:56.003Z,69.53
2023-04-08T18:46:25.256Z,69.91
2023-04-08T18:48:53.066Z,69.90
2023-04-08T18:51:20.850Z,70.21
2023-04-08T18:53:49.855Z,70.16
2023-04-08T18:56:18.004Z,69.91
2023-04-08T18:58:46.326Z,70.26
2023-04-08T19:01:14.372Z,69.78
2023-04-08T19:03:44.356Z,70.34
2023-04-08T19:06:13.040Z,70.24
2023-04-08T19:08:41.491Z,69.78
2023-04-08T19:11:09.252Z,69.68
2023-04-08T19:13:37.075Z,70.09
2023-04-08T19:16:05.149Z,69.93
2023-04-08T19:18:32.980Z,69.65
2023-04-08T19:21:03.601Z,70.30
2023-04-08T19:23:32.108Z,69.80
2023-04-08T19:25:59.915Z,70.05
2023-04-08T19:28:27.633Z,70.38
2023-04-08T19:30:55.423Z,70.03
2023-04-08T19:33:23.668Z,70.18
2023-04-08T19:35:51.483Z,70.11
2023-04-08T19:38:20.624Z,69.82
2023-04-08T19:40:49.254Z,69.42
2023-04-08T19:43:17.918Z,68.73
2023-04-08T19:45:46.321Z,68.99
2023-04-08T19:48:14.226Z,68.83
2023-04-08T19:50:42.745Z,68.26
2023-04-08T19:53:10.482Z,68.56
2023-04-08T19:55:39.817Z,68.40
2023-04-08T19:58:07.900Z,67.92
2023-04-08T20:00:37.408Z,67.72
2023-04-08T20:03:05.859Z,66.90
2023-04-08T20:05:33.872Z,66.68
2023-04-08T20:08:01.656Z,66.34
2023-04-08T20:10:29.571Z,66.48
2023-04-08T20:12:58.698Z,66.67
2023-04-08T20:15:26.594Z,66.19
2023-04-08T20:17:54.462Z,66.28
2023-04-08T20:20:22.911Z,64.26
2023-04-08T20:22:50.855Z,64.84
2023-04-08T20:25:18.752Z,63.84
2023-04-08T20:27:46.599Z,63.68
2023-04-08T20:30:15.848Z,63.28
2023-04-08T20:32:43.633Z,63.43
2023-04-08T20:35:11.830Z,63.25
2023-04-08T20:37:39.566Z,62.55
2023-04-08T20:40:09.206Z,62.61
2023-04-08T20:42:38.610Z,61.77
2023-04-08T20:45:07.543Z,61.75
2023-04-08T20:47:36.714Z,62.42
2023-04-08T20:50:04.911Z,62.16
2023-04-08T20:52:32.724Z,62.40
2023-04-08T20:55:00.629Z,62.30
2023-04-08T20:57:28.414Z,62.24
2023-04-08T20:59:56.144Z,61.95
2023-04-08T21:02:24.342Z,62.36
2023-04-08T21:04:53.658Z,62.34
2023-04-08T21:07:32.874Z,62.42
2023-04-08T21:10:01.152Z,62.46
2023-04-08T21:12:35.029Z,62.74
2023-04-08T21:15:02.758Z,62.76
2023-04-08T21:17:31.279Z,62.87
2023-04-08T21:20:00.521Z,63.02
2023-04-08T21:22:28.886Z,63.01
2023-04-08T21:24:57.891Z,63.15
2023-04-08T21:27:25.666Z,63.43
2023-04-08T21:29:53.495Z,63.50
2023-04-08T21:32:21.257Z,63.38
2023-04-08T21:34:49.060Z,63.75
2023-04-08T21:37:18.339Z,63.85
2023-04-08T21:39:46.809Z,64.13
2023-04-08T21:42:14.556Z,63.68
2023-04-08T21:44:42.478Z,64.04
2023-04-08T21:47:10.744Z,64.32
2023-04-08T21:49:38.520Z,64.47
2023-04-08T21:52:06.854Z,64.67
2023-04-08T21:54:36.460Z,64.73
2023-04-08T21:57:04.634Z,64.94
2023-04-08T21:59:32.380Z,64.92
2023-04-08T22:02:03.919Z,65.05
2023-04-08T22:04:31.812Z,65.04
2023-04-08T22:06:59.795Z,65.18
2023-04-08T22:09:27.890Z,65.29
2023-04-08T22:11:57.967Z,65.56
2023-04-08T22:14:26.149Z,65.82
2023-04-08T22:16:54.706Z,65.71
2023-04-08T22:19:22.505Z,65.97
2023-04-08T22:21:51.255Z,66.13
2023-04-08T22:24:19.572Z,66.09
2023-04-08T22:26:47.433Z,66.19
2023-04-08T22:29:17.351Z,66.55
2023-04-08T22:31:45.578Z,66.46
2023-04-08T22:34:13.681Z,66.61
2023-04-08T22:36:41.572Z,66.80
2023-04-08T22:39:09.579Z,66.67
2023-04-08T22:41:37.409Z,66.76
2023-04-08T22:44:05.441Z,66.67
2023-04-08T22:46:35.044Z,66.83
2023-04-08T22:49:03.325Z,66.78
2023-04-08T22:51:31.046Z,66.89
2023-04-08T22:53:59.261Z,66.89
2023-04-08T22:56:28.937Z,67.09
2023-04-08T22:58:56.796Z,67.22
2023-04-08T23:01:24.757Z,67.14
2023-04-08T23:03:54.395Z,67.08
2023-04-08T23:06:22.492Z,66.94
2023-04-08T23:08:50.539Z,66.77
2023-04-08T23:11:19.053Z,66.50
2023-04-08T23:13:47.039Z,66.80
2023-04-08T23:16:14.902Z,66.60
2023-04-08T23:18:43.139Z,66.55
2023-04-08T23:21:12.338Z,66.46
2023-04-08T23:23:40.100Z,66.57
2023-04-08T23:26:07.945Z,66.62
2023-04-08T23:28:35.766Z,66.58
2023-04-08T23:31:05.340Z,66.61
2023-04-08T23:33:33.132Z,66.59
2023-04-08T23:36:00.898Z,66.64
2023-04-08T23:38:30.039Z,66.60
2023-04-08T23:40:57.759Z,66.66
2023-04-08T23:43:25.533Z,66.46
2023-04-08T23:45:53.260Z,66.78
2023-04-08T23:48:21.007Z,66.40
2023-04-08T23:50:52.315Z,66.04
2023-04-08T23:53:20.273Z,66.32
2023-04-08T23:55:49.411Z,66.49
2023-04-08T23:58:17.277Z,66.49
